Minot, ND

10:59 AM CDT on May 23, 2015 (GMT -0500)
Why Not Minot | | Change Station
CLOSE
Current Station
Personal Weather Station
Location: Minot, ND
Elevation: 1759 ft
Nearby Weather Stations

Elev 1759 ft 48.22 °N, 101.30 °W | Updated 10 minutes ago

Partly Cloudy
Partly Cloudy
70.9 °F
Feels Like 77 °F
N
1.1
Wind Variable Wind from SE

Today
High -- | Low -- °F
--% Chance of Precip.
Yesterday
High -- | Low -- °F
Precip. -- in
5:56 AM 9:27 PM
Waxing Crescent, 31% visible
Pressure 30.13 in
Visibility 10.0 miles
Clouds Few 10000 ft
Heat Index 77 °F
Dew Point 43 °F
Humidity 36%
Rainfall 0.00 in
Snow Depth Not available.
UV 6 out of 12
Pollen 8.80 out of 12
Air Quality Not available.
Flu Activity Sporadic
METAR KMOT 231554Z AUTO 00000KT 10SM FEW100 20/03 A3013 RMK AO2 SLP202 T02000033

More Conditions Fewer Conditions

Pressure 30.13 in
Visibility 10.0 miles
Clouds Few 10000 ft
Heat Index 77 °F
Dew Point 43 °F
Humidity 36%
Rainfall 0.00 in
Snow Depth Not available.
UV 6 out of 12
Pollen 8.80 out of 12
Air Quality Not available.
Flu Activity Sporadic
METAR KMOT 231554Z AUTO 00000KT 10SM FEW100 20/03 A3013 RMK AO2 SLP202 T02000033

More Conditions Fewer Conditions

10-Day Weather Forecast

Almanac

Astronomy

May. 23, 2015 Rise Set
Actual Time
Civil Twilight
Nautical Twilight
Astronomical Twilight
Moon
Length of Visible Light
Length of Day
Tomorrow will be .
, % of the Moon is Illuminated

Today's Extremes

State Highs State Lows

Community

WunderPhotos

Upload Photos

1,823,504 photos uploaded!

WunderBlogs® & News

Nearby

Air Quality

  Air Quality AQ Index Pollutant
Not available.

Snow Depth

Station Depth Elevation

Earthquake Activity

City Distance Mag. Time & Date
Minimum magnitude displayed is 2.5.

Coastal Water Temperatures

Place Temperature

Stations

Nearby Weather Stations

Station Location Temp. Windchill Dew Point Humidity Wind Precip. Elev Updated Type